Lorraine, Kansas
Current Conditions -  °F | °C
As of 2:35 PM on Wednesday 26 Nov 2014 (Local Time) from KGBD Reporting Station
Overcast Overcast  
Wind Chill: 32°   Ceiling: 10000
Heat Index: 41°   Visibility: 10mi
Dew Point: 19°   Wind: 17mph
Humidity: 42%   Direction: 320°NW
Pressure: 30.27"   Gusts: NA
Location:  38.57°N, 98.32°W
Report Text: KGBD 262035Z AUTO 32015KT 10SM OVC100 05/M07 A3027 RMK AO1
Loading
Personal Weather Stations






























Interactive Weather Map New forecast layout! Learn more

10-Day Weather Forecast

Advertisements
Track Severe Weather on mobile